createdAt,value
2019-03-21T00:02:05.481Z,68.50
2019-03-21T00:04:33.930Z,62.70
2019-03-21T00:07:02.378Z,65.43
2019-03-21T00:09:30.824Z,66.87
2019-03-21T00:12:05.005Z,66.23
2019-03-21T00:14:36.752Z,69.33
2019-03-21T00:17:07.939Z,67.40
2019-03-21T00:19:36.391Z,71.20
2019-03-21T00:22:05.593Z,66.93
2019-03-21T00:24:34.032Z,68.07
2019-03-21T00:27:02.644Z,68.10
2019-03-21T00:29:31.084Z,67.13
2019-03-21T00:31:59.521Z,70.50
2019-03-21T00:34:27.976Z,66.60
2019-03-21T00:36:56.421Z,68.33
2019-03-21T00:39:32.770Z,67.43
2019-03-21T00:41:55.002Z,67.90
2019-03-21T00:44:23.437Z,67.93
2019-03-21T00:46:51.872Z,68.13
2019-03-21T00:49:20.303Z,76.03
2019-03-21T00:51:48.820Z,69.00
2019-03-21T00:54:17.264Z,69.37
2019-03-21T00:56:45.957Z,68.50
2019-03-21T00:59:14.407Z,69.20
2019-03-21T01:01:42.915Z,67.60
2019-03-21T01:04:11.387Z,68.87
2019-03-21T01:06:39.865Z,68.13
2019-03-21T01:09:11.501Z,70.40
2019-03-21T01:11:42.014Z,72.33
2019-03-21T01:14:10.507Z,69.30
2019-03-21T01:16:39.023Z,63.63
2019-03-21T01:19:07.463Z,69.90
2019-03-21T01:21:35.924Z,64.80
2019-03-21T01:24:04.526Z,66.27
2019-03-21T01:26:32.971Z,66.00
2019-03-21T01:29:02.938Z,71.17
2019-03-21T01:31:31.383Z,67.47
2019-03-21T01:33:59.968Z,64.23
2019-03-21T01:36:28.418Z,64.43
2019-03-21T01:38:56.863Z,62.63
2019-03-21T01:41:26.417Z,65.90
2019-03-21T01:43:54.865Z,66.80
2019-03-21T01:46:25.751Z,66.57
2019-03-21T01:48:54.190Z,70.73
2019-03-21T01:51:22.636Z,66.30
2019-03-21T01:53:51.805Z,66.43
2019-03-21T01:56:20.265Z,68.07
2019-03-21T01:58:50.701Z,64.23
2019-03-21T02:01:19.154Z,66.70
2019-03-21T02:03:47.667Z,62.00
2019-03-21T02:06:16.106Z,66.70
2019-03-21T02:08:44.529Z,67.30
2019-03-21T02:11:12.977Z,64.23
2019-03-21T02:13:41.465Z,62.37
2019-03-21T02:16:09.925Z,65.00
2019-03-21T02:18:38.357Z,63.30
2019-03-21T02:21:06.796Z,66.17
2019-03-21T02:23:35.589Z,61.27
2019-03-21T02:26:04.081Z,66.10
2019-03-21T02:28:32.536Z,63.73
2019-03-21T02:31:00.964Z,67.50
2019-03-21T02:33:38.766Z,64.77
2019-03-21T02:36:10.287Z,61.20
2019-03-21T02:38:38.857Z,60.70
2019-03-21T02:41:10.615Z,63.17
2019-03-21T02:43:39.669Z,62.53
2019-03-21T02:46:09.644Z,57.60
2019-03-21T02:48:38.325Z,61.40
2019-03-21T02:51:08.301Z,66.13
2019-03-21T02:53:36.747Z,64.73
2019-03-21T02:56:08.607Z,58.30
2019-03-21T02:58:37.157Z,63.67
2019-03-21T03:01:05.655Z,65.80
2019-03-21T03:03:34.101Z,63.57
2019-03-21T03:06:02.613Z,59.90
2019-03-21T03:08:31.114Z,61.83
2019-03-21T03:11:05.668Z,58.27
2019-03-21T03:13:34.106Z,58.63
2019-03-21T03:16:02.543Z,55.90
2019-03-21T03:18:30.986Z,58.77
2019-03-21T03:20:59.428Z,57.50
2019-03-21T03:23:27.896Z,56.40
2019-03-21T03:25:56.337Z,63.80
2019-03-21T03:28:30.691Z,59.47
2019-03-21T03:30:59.491Z,53.50
2019-03-21T03:33:28.469Z,56.50
2019-03-21T03:35:56.890Z,57.03
2019-03-21T03:38:25.361Z,57.10
2019-03-21T03:41:00.036Z,56.70
2019-03-21T03:43:28.464Z,55.13
2019-03-21T03:45:56.902Z,53.70
2019-03-21T03:48:27.298Z,58.27
2019-03-21T03:50:57.366Z,55.40
2019-03-21T03:53:25.815Z,51.23
2019-03-21T03:55:54.317Z,48.87
2019-03-21T03:58:31.113Z,57.30
2019-03-21T04:00:59.592Z,55.23
2019-03-21T04:03:28.693Z,54.70
2019-03-21T04:05:57.159Z,58.77
2019-03-21T04:08:25.660Z,54.00
2019-03-21T04:10:55.950Z,57.17
2019-03-21T04:13:24.396Z,61.20
2019-03-21T04:15:53.973Z,58.67
2019-03-21T04:18:24.754Z,57.27
2019-03-21T04:20:59.544Z,56.67
2019-03-21T04:23:27.969Z,52.80
2019-03-21T04:26:06.109Z,53.30
2019-03-21T04:28:36.044Z,44.63
2019-03-21T04:31:04.496Z,57.37
2019-03-21T04:33:33.098Z,53.93
2019-03-21T04:36:01.571Z,51.57
2019-03-21T04:38:30.152Z,53.23
2019-03-21T04:40:58.601Z,56.50
2019-03-21T04:43:27.030Z,53.90
2019-03-21T04:46:03.451Z,50.67
2019-03-21T04:48:25.617Z,51.93
2019-03-21T04:50:54.108Z,48.97
2019-03-21T04:53:22.533Z,47.10
2019-03-21T04:55:51.119Z,52.50
2019-03-21T04:58:19.541Z,52.50
2019-03-21T05:00:53.925Z,52.30
2019-03-21T05:03:27.856Z,51.37
2019-03-21T05:05:56.303Z,50.03
2019-03-21T05:08:24.745Z,50.10
2019-03-21T05:10:53.194Z,48.10
2019-03-21T05:13:21.713Z,43.53
2019-03-21T05:15:51.932Z,41.10
2019-03-21T05:18:43.869Z,39.10
2019-03-21T05:21:17.472Z,33.87
2019-03-21T05:23:45.905Z,35.17
2019-03-21T05:26:14.618Z,35.10
2019-03-21T05:28:43.062Z,33.20
2019-03-21T05:31:26.705Z,31.27
2019-03-21T05:33:55.147Z,33.03
2019-03-21T05:36:25.013Z,35.27
2019-03-21T05:38:53.448Z,35.00
2019-03-21T05:41:21.997Z,35.80
2019-03-21T05:43:56.538Z,35.40
2019-03-21T05:46:27.044Z,38.97
2019-03-21T05:48:55.142Z,38.43
2019-03-21T05:51:23.578Z,36.40
2019-03-21T05:53:52.008Z,35.43
2019-03-21T05:56:20.447Z,37.83
2019-03-21T05:58:49.085Z,36.97
2019-03-21T06:01:17.524Z,42.00
2019-03-21T06:03:50.910Z,40.33
2019-03-21T06:06:41.805Z,39.57
2019-03-21T06:09:13.310Z,39.67
2019-03-21T06:11:44.958Z,41.60
2019-03-21T06:14:13.556Z,34.47
2019-03-21T06:16:42.083Z,41.60
2019-03-21T06:19:22.608Z,41.60
2019-03-21T06:21:56.752Z,41.90
2019-03-21T06:24:36.666Z,41.37
2019-03-21T06:27:30.221Z,37.63
2019-03-21T06:29:59.193Z,41.20
2019-03-21T06:32:28.789Z,41.00
2019-03-21T06:34:58.201Z,39.93
2019-03-21T06:37:28.688Z,43.03
2019-03-21T06:39:57.385Z,40.37
2019-03-21T06:42:26.076Z,41.90
2019-03-21T06:44:54.611Z,34.23
2019-03-21T06:47:23.144Z,39.30
2019-03-21T06:49:51.637Z,41.03
2019-03-21T06:52:20.098Z,39.33
2019-03-21T06:54:48.574Z,37.97
2019-03-21T06:57:17.158Z,42.80
2019-03-21T06:59:46.453Z,42.03
2019-03-21T07:02:14.898Z,40.30
2019-03-21T07:04:43.337Z,43.53
2019-03-21T07:07:11.847Z,41.70
2019-03-21T07:09:40.304Z,41.83
2019-03-21T07:12:09.025Z,42.87
2019-03-21T07:14:37.460Z,45.77
2019-03-21T07:17:05.895Z,41.10
2019-03-21T07:19:34.517Z,42.10
2019-03-21T07:22:02.951Z,39.83
2019-03-21T07:24:31.397Z,39.07
2019-03-21T07:26:59.849Z,38.37
2019-03-21T07:29:28.362Z,38.87
2019-03-21T07:31:56.783Z,35.13
2019-03-21T07:34:25.247Z,33.60
2019-03-21T07:36:53.676Z,40.77
2019-03-21T07:39:21.801Z,40.20
2019-03-21T07:41:50.240Z,39.13
2019-03-21T07:44:18.687Z,34.73
2019-03-21T07:46:47.114Z,34.47
2019-03-21T07:49:15.645Z,28.47
2019-03-21T07:51:45.322Z,36.53
2019-03-21T07:54:16.026Z,33.00
2019-03-21T07:56:44.461Z,34.40
2019-03-21T07:59:12.929Z,34.20
2019-03-21T08:01:41.460Z,34.27
2019-03-21T08:04:09.870Z,36.00
2019-03-21T08:06:38.285Z,38.63
2019-03-21T08:09:07.775Z,37.37
2019-03-21T08:11:36.285Z,35.17
2019-03-21T08:14:05.196Z,39.40
2019-03-21T08:16:33.646Z,36.00
2019-03-21T08:19:02.104Z,34.57
2019-03-21T08:21:30.524Z,37.00
2019-03-21T08:23:58.967Z,37.30
2019-03-21T08:26:27.397Z,35.90
2019-03-21T08:28:57.505Z,35.60
2019-03-21T08:31:25.983Z,32.20
2019-03-21T08:33:54.436Z,30.40
2019-03-21T08:36:22.859Z,25.60
2019-03-21T08:38:51.371Z,29.70
2019-03-21T08:41:19.805Z,23.70
2019-03-21T08:43:48.257Z,24.43
2019-03-21T08:46:16.867Z,24.73
2019-03-21T08:48:45.324Z,22.97
2019-03-21T08:51:13.776Z,24.73
2019-03-21T08:53:42.255Z,24.77
2019-03-21T08:56:11.564Z,23.93
2019-03-21T08:58:39.995Z,24.03
2019-03-21T09:01:08.438Z,19.57
2019-03-21T09:03:36.932Z,23.20
2019-03-21T09:06:05.744Z,19.40
2019-03-21T09:08:34.718Z,23.27
2019-03-21T09:11:03.155Z,24.53
2019-03-21T09:13:31.597Z,22.10
2019-03-21T09:16:00.163Z,24.67
2019-03-21T09:18:28.592Z,25.87
2019-03-21T09:20:57.220Z,26.67
2019-03-21T09:23:25.657Z,24.37
2019-03-21T09:25:54.102Z,24.40
2019-03-21T09:28:22.549Z,23.97
2019-03-21T09:30:51.004Z,25.73
2019-03-21T09:33:19.509Z,21.60
2019-03-21T09:35:47.990Z,18.17
2019-03-21T09:38:16.457Z,21.77
2019-03-21T09:40:44.977Z,20.70
2019-03-21T09:43:13.401Z,23.43
2019-03-21T09:45:43.666Z,24.20
2019-03-21T09:48:12.100Z,21.83
2019-03-21T09:50:40.530Z,22.40
2019-03-21T09:53:08.967Z,20.90
2019-03-21T09:55:37.668Z,21.47
2019-03-21T09:58:06.098Z,22.60
2019-03-21T10:00:36.185Z,22.50
2019-03-21T10:03:05.861Z,20.93
2019-03-21T10:05:34.857Z,22.10
2019-03-21T10:08:03.757Z,22.27
2019-03-21T10:10:34.046Z,20.77
2019-03-21T10:13:02.492Z,22.97
2019-03-21T10:15:31.155Z,23.37
2019-03-21T10:17:59.589Z,23.77
2019-03-21T10:20:28.019Z,22.77
2019-03-21T10:22:57.569Z,21.43
2019-03-21T10:25:26.909Z,23.20
2019-03-21T10:27:55.725Z,24.10
2019-03-21T10:30:33.189Z,21.97
2019-03-21T10:33:02.000Z,22.90
2019-03-21T10:35:32.538Z,20.63
2019-03-21T10:38:00.605Z,25.63
2019-03-21T10:40:29.110Z,23.30
2019-03-21T10:42:57.569Z,22.50
2019-03-21T10:45:25.997Z,23.97
2019-03-21T10:47:54.587Z,24.93
2019-03-21T10:50:36.905Z,24.37
2019-03-21T10:53:07.519Z,23.10
2019-03-21T10:55:36.575Z,27.10
2019-03-21T10:58:06.356Z,25.47
2019-03-21T11:00:35.087Z,26.03
2019-03-21T11:03:03.582Z,22.40
2019-03-21T11:05:32.016Z,25.53
2019-03-21T11:08:00.450Z,24.20
2019-03-21T11:10:28.885Z,25.60
2019-03-21T11:12:57.393Z,24.00
2019-03-21T11:15:25.833Z,24.90
2019-03-21T11:17:56.025Z,27.17
2019-03-21T11:20:32.201Z,27.17
2019-03-21T11:23:00.904Z,24.67
2019-03-21T11:25:29.869Z,26.60
2019-03-21T11:27:58.329Z,26.07
2019-03-21T11:30:31.893Z,25.90
2019-03-21T11:33:01.176Z,26.93
2019-03-21T11:35:29.886Z,25.73
2019-03-21T11:37:58.349Z,26.47
2019-03-21T11:40:26.897Z,26.43
2019-03-21T11:42:56.533Z,25.53
2019-03-21T11:45:24.994Z,22.30
2019-03-21T11:47:53.475Z,24.67
2019-03-21T11:50:22.260Z,23.67
2019-03-21T11:52:50.795Z,23.60
2019-03-21T11:55:19.334Z,25.00
2019-03-21T11:57:49.937Z,25.33
2019-03-21T12:00:18.812Z,25.83
2019-03-21T12:02:47.250Z,25.00
2019-03-21T12:05:15.680Z,25.83
2019-03-21T12:07:44.143Z,26.20
2019-03-21T12:10:13.915Z,26.53
2019-03-21T12:12:42.340Z,26.83
2019-03-21T12:15:11.928Z,24.83
2019-03-21T12:17:40.359Z,24.57
2019-03-21T12:20:17.725Z,25.53
2019-03-21T12:22:47.361Z,24.70
2019-03-21T12:25:16.108Z,23.47
2019-03-21T12:27:44.538Z,23.57
2019-03-21T12:30:18.971Z,22.40
2019-03-21T12:32:47.393Z,20.50
2019-03-21T12:35:15.839Z,20.83
2019-03-21T12:37:44.278Z,22.80
2019-03-21T12:40:13.154Z,19.10
2019-03-21T12:42:41.595Z,19.97
2019-03-21T12:45:11.164Z,19.10
2019-03-21T12:47:39.592Z,18.87
2019-03-21T12:50:09.183Z,20.23
2019-03-21T12:52:41.627Z,19.23
2019-03-21T12:55:08.318Z,18.60
2019-03-21T12:57:36.810Z,18.33
2019-03-21T13:00:07.867Z,16.83
2019-03-21T13:02:36.307Z,19.80
2019-03-21T13:05:07.662Z,18.77
2019-03-21T13:07:36.089Z,18.50
2019-03-21T13:10:06.264Z,19.57
2019-03-21T13:12:34.712Z,17.90
2019-03-21T13:15:03.709Z,17.10
2019-03-21T13:17:32.141Z,16.53
2019-03-21T13:20:00.590Z,17.93
2019-03-21T13:22:29.023Z,19.07
2019-03-21T13:24:57.463Z,16.57
2019-03-21T13:27:25.897Z,18.10
2019-03-21T13:29:54.345Z,20.27
2019-03-21T13:32:22.825Z,20.00
2019-03-21T13:34:51.326Z,17.50
2019-03-21T13:37:19.820Z,18.73
2019-03-21T13:39:48.307Z,17.90
2019-03-21T13:42:16.751Z,17.37
2019-03-21T13:44:45.277Z,20.17
2019-03-21T13:47:13.717Z,18.97
2019-03-21T13:49:42.157Z,18.20
2019-03-21T13:52:10.597Z,18.47
2019-03-21T13:54:39.032Z,19.10
2019-03-21T13:57:07.476Z,21.07
2019-03-21T13:59:35.914Z,19.90
2019-03-21T14:02:04.365Z,19.90
2019-03-21T14:04:32.817Z,19.90
2019-03-21T14:07:01.833Z,20.23
2019-03-21T14:09:30.268Z,22.27
2019-03-21T14:11:58.705Z,21.07
2019-03-21T14:14:27.513Z,20.23
2019-03-21T14:16:56.144Z,23.70
2019-03-21T14:19:24.566Z,22.57
2019-03-21T14:21:53.014Z,20.50
2019-03-21T14:24:21.448Z,22.50
2019-03-21T14:26:49.894Z,21.53
2019-03-21T14:29:18.381Z,20.97
2019-03-21T14:31:46.847Z,21.73
2019-03-21T14:34:15.354Z,22.20
2019-03-21T14:36:43.787Z,20.90
2019-03-21T14:39:12.220Z,21.27
2019-03-21T14:41:42.970Z,21.57
2019-03-21T14:44:11.408Z,20.90
2019-03-21T14:46:39.905Z,21.50
2019-03-21T14:49:08.337Z,20.80
2019-03-21T14:51:36.798Z,20.07
2019-03-21T14:54:08.193Z,19.30
2019-03-21T14:56:36.637Z,20.43
2019-03-21T14:59:05.085Z,19.43
2019-03-21T15:01:35.843Z,18.40
2019-03-21T15:04:04.434Z,19.70
2019-03-21T15:06:34.031Z,18.80
2019-03-21T15:09:02.446Z,19.70
2019-03-21T15:11:30.937Z,20.20
2019-03-21T15:13:59.412Z,21.70
2019-03-21T15:16:27.858Z,22.43
2019-03-21T15:18:56.292Z,19.87
2019-03-21T15:21:24.736Z,19.60
2019-03-21T15:23:59.364Z,19.37
2019-03-21T15:26:23.369Z,21.40
2019-03-21T15:28:53.448Z,21.00
2019-03-21T15:31:21.905Z,20.97
2019-03-21T15:33:50.348Z,21.40
2019-03-21T15:36:18.791Z,20.10
2019-03-21T15:38:47.223Z,19.60
2019-03-21T15:41:15.693Z,20.17
2019-03-21T15:43:44.164Z,20.73
2019-03-21T15:46:12.601Z,21.30
2019-03-21T15:48:41.041Z,18.97
2019-03-21T15:51:09.473Z,20.03
2019-03-21T15:53:37.920Z,20.43
2019-03-21T15:56:06.631Z,21.23
2019-03-21T15:58:35.092Z,20.67
2019-03-21T16:01:04.373Z,19.87
2019-03-21T16:03:32.828Z,19.87
2019-03-21T16:06:01.268Z,19.83
2019-03-21T16:08:29.696Z,19.07
2019-03-21T16:10:58.133Z,18.73
2019-03-21T16:13:26.577Z,20.87
2019-03-21T16:15:56.551Z,20.73
2019-03-21T16:18:25.003Z,20.10
2019-03-21T16:20:53.439Z,18.90
2019-03-21T16:23:22.484Z,20.63
2019-03-21T16:25:50.960Z,20.00
2019-03-21T16:28:20.309Z,20.27
2019-03-21T16:30:49.221Z,19.07
2019-03-21T16:33:18.169Z,20.13
2019-03-21T16:35:46.709Z,21.17
2019-03-21T16:38:15.149Z,20.47
2019-03-21T16:40:43.585Z,21.27
2019-03-21T16:43:12.038Z,21.40
2019-03-21T16:45:40.485Z,21.70
2019-03-21T16:48:09.425Z,22.10
2019-03-21T16:50:38.044Z,20.43
2019-03-21T16:53:06.746Z,21.37
2019-03-21T16:55:35.185Z,23.30
2019-03-21T16:58:03.619Z,22.07
2019-03-21T17:00:32.068Z,21.53
2019-03-21T17:03:00.541Z,23.20
2019-03-21T17:05:28.985Z,22.90
2019-03-21T17:08:09.902Z,20.70
2019-03-21T17:10:30.475Z,21.37
2019-03-21T17:12:58.628Z,22.00
2019-03-21T17:15:27.974Z,21.47
2019-03-21T17:17:56.417Z,22.37
2019-03-21T17:20:24.880Z,22.90
2019-03-21T17:22:53.318Z,22.03
2019-03-21T17:25:21.844Z,21.50
2019-03-21T17:27:50.295Z,21.70
2019-03-21T17:30:18.848Z,21.90
2019-03-21T17:32:47.296Z,20.97
2019-03-21T17:35:15.789Z,21.60
2019-03-21T17:37:45.521Z,21.70
2019-03-21T17:40:15.420Z,21.43
2019-03-21T17:42:44.200Z,21.60
2019-03-21T17:45:14.961Z,19.97
2019-03-21T17:47:43.539Z,20.80
2019-03-21T17:50:14.232Z,24.50
2019-03-21T17:52:42.675Z,21.00
2019-03-21T17:55:11.292Z,19.40
2019-03-21T17:57:39.953Z,22.70
2019-03-21T18:00:35.369Z,20.60
2019-03-21T18:03:04.641Z,21.97
2019-03-21T18:05:33.100Z,21.77
2019-03-21T18:08:01.575Z,22.10
2019-03-21T18:10:34.062Z,20.70
2019-03-21T18:13:03.400Z,21.43
2019-03-21T18:15:32.121Z,22.70
2019-03-21T18:18:00.568Z,23.13
2019-03-21T18:20:29.254Z,22.67
2019-03-21T18:22:57.785Z,24.10
2019-03-21T18:25:37.409Z,21.70
2019-03-21T18:28:08.510Z,24.70
2019-03-21T18:30:36.057Z,22.07
2019-03-21T18:33:04.544Z,21.13
2019-03-21T18:35:33.075Z,22.10
2019-03-21T18:38:01.591Z,21.27
2019-03-21T18:40:30.049Z,21.70
2019-03-21T18:42:58.502Z,23.47
2019-03-21T18:45:26.992Z,23.07
2019-03-21T18:47:55.453Z,22.90
2019-03-21T18:50:23.892Z,23.23
2019-03-21T18:52:52.342Z,23.37
2019-03-21T18:55:20.768Z,25.00
2019-03-21T18:57:49.501Z,24.70
2019-03-21T19:00:21.036Z,23.10
2019-03-21T19:02:50.043Z,25.40
2019-03-21T19:05:18.468Z,23.47
2019-03-21T19:07:46.931Z,22.70
2019-03-21T19:10:16.057Z,26.37
2019-03-21T19:12:44.793Z,25.33
2019-03-21T19:15:14.677Z,23.33
2019-03-21T19:17:43.146Z,22.00
2019-03-21T19:20:14.568Z,25.43
2019-03-21T19:22:43.089Z,24.30
2019-03-21T19:25:18.573Z,23.17
2019-03-21T19:27:42.325Z,23.70
2019-03-21T19:30:18.742Z,24.80
2019-03-21T19:32:50.557Z,26.30
2019-03-21T19:35:19.069Z,24.03
2019-03-21T19:37:47.590Z,26.17
2019-03-21T19:40:17.775Z,26.90
2019-03-21T19:42:46.485Z,26.40
2019-03-21T19:45:16.656Z,24.60
2019-03-21T19:47:45.184Z,26.80
2019-03-21T19:50:19.298Z,26.67
2019-03-21T19:52:47.813Z,27.47
2019-03-21T19:55:16.691Z,28.90
2019-03-21T19:57:45.219Z,29.80
2019-03-21T20:00:22.183Z,27.93
2019-03-21T20:02:51.283Z,29.57
2019-03-21T20:05:19.709Z,32.00
2019-03-21T20:07:48.389Z,32.00
2019-03-21T20:10:18.949Z,29.47
2019-03-21T20:12:47.597Z,31.53
2019-03-21T20:15:17.471Z,29.37
2019-03-21T20:17:45.932Z,30.90
2019-03-21T20:20:18.587Z,32.20
2019-03-21T20:22:47.329Z,30.70
2019-03-21T20:25:16.070Z,31.60
2019-03-21T20:27:45.835Z,31.97
2019-03-21T20:30:17.578Z,30.67
2019-03-21T20:32:48.123Z,34.77
2019-03-21T20:35:18.034Z,32.43
2019-03-21T20:37:47.629Z,29.90
2019-03-21T20:40:18.281Z,31.20
2019-03-21T20:42:47.507Z,32.43
2019-03-21T20:45:17.688Z,30.60
2019-03-21T20:47:46.120Z,32.00
2019-03-21T20:50:15.210Z,33.40
2019-03-21T20:52:43.747Z,32.83
2019-03-21T20:55:12.765Z,34.50
2019-03-21T20:57:41.266Z,34.20
2019-03-21T21:00:12.913Z,36.03
2019-03-21T21:02:41.542Z,35.73
2019-03-21T21:05:10.314Z,36.67
2019-03-21T21:07:38.775Z,36.60
2019-03-21T21:10:09.214Z,36.73
2019-03-21T21:12:37.758Z,36.53
2019-03-21T21:15:08.830Z,39.20
2019-03-21T21:17:37.259Z,39.10
2019-03-21T21:20:08.575Z,38.90
2019-03-21T21:22:37.008Z,39.77
2019-03-21T21:25:07.794Z,37.67
2019-03-21T21:27:36.244Z,43.30
2019-03-21T21:30:07.593Z,39.43
2019-03-21T21:32:36.027Z,39.50
2019-03-21T21:35:08.654Z,38.50
2019-03-21T21:37:38.334Z,38.00
2019-03-21T21:40:08.530Z,38.23
2019-03-21T21:42:56.476Z,41.93
2019-03-21T21:45:24.929Z,38.07
2019-03-21T21:47:53.368Z,41.00
2019-03-21T21:50:21.825Z,38.00
2019-03-21T21:52:50.267Z,39.10
2019-03-21T21:55:18.776Z,41.43
2019-03-21T21:57:48.173Z,40.17
2019-03-21T22:00:22.843Z,40.93
2019-03-21T22:02:51.350Z,41.63
2019-03-21T22:05:19.792Z,38.70
2019-03-21T22:07:48.255Z,40.40
2019-03-21T22:10:16.989Z,40.80
2019-03-21T22:12:47.024Z,41.30
2019-03-21T22:15:16.796Z,38.70
2019-03-21T22:17:45.236Z,39.07
2019-03-21T22:20:15.321Z,42.60
2019-03-21T22:22:44.313Z,36.10
2019-03-21T22:25:13.308Z,41.67
2019-03-21T22:27:42.004Z,37.53
2019-03-21T22:30:13.563Z,39.50
2019-03-21T22:32:42.478Z,38.83
2019-03-21T22:35:11.450Z,40.87
2019-03-21T22:37:40.161Z,42.93
2019-03-21T22:40:10.633Z,46.73
2019-03-21T22:42:39.157Z,46.47
2019-03-21T22:45:12.952Z,52.83
2019-03-21T22:47:41.396Z,46.33
2019-03-21T22:50:17.067Z,41.63
2019-03-21T22:52:46.156Z,43.13
2019-03-21T22:55:15.064Z,43.67
2019-03-21T22:57:43.814Z,42.50
2019-03-21T23:00:15.517Z,44.60
2019-03-21T23:02:44.047Z,47.10
2019-03-21T23:05:12.926Z,44.47
2019-03-21T23:07:41.361Z,43.80
2019-03-21T23:10:11.145Z,40.20
2019-03-21T23:12:39.823Z,43.43
2019-03-21T23:15:10.721Z,40.57
2019-03-21T23:17:39.235Z,44.93
2019-03-21T23:20:10.507Z,42.77
2019-03-21T23:22:39.088Z,37.90
2019-03-21T23:25:09.157Z,32.93
2019-03-21T23:27:37.671Z,30.67
2019-03-21T23:30:14.523Z,36.60
2019-03-21T23:32:43.169Z,37.60
2019-03-21T23:35:15.238Z,51.37
2019-03-21T23:37:43.937Z,44.03
2019-03-21T23:40:16.228Z,38.60
2019-03-21T23:42:44.838Z,38.07
2019-03-21T23:45:14.302Z,40.90
2019-03-21T23:47:42.746Z,36.93
2019-03-21T23:50:12.826Z,36.47
2019-03-21T23:52:41.308Z,36.37
2019-03-21T23:55:10.520Z,32.00
2019-03-21T23:57:38.955Z,36.80
